sensor_id;sensor_type;location;lat;lon;timestamp;temperature;humidity
10654;DHT22;5375;51.250;6.776;2023-04-07T00:00:24;19.40;44.10
10654;DHT22;5375;51.250;6.776;2023-04-07T00:02:51;19.50;44.30
10654;DHT22;5375;51.250;6.776;2023-04-07T00:05:16;19.50;44.30
10654;DHT22;5375;51.250;6.776;2023-04-07T00:07:42;19.40;44.20
10654;DHT22;5375;51.250;6.776;2023-04-07T00:10:08;19.40;44.20
10654;DHT22;5375;51.250;6.776;2023-04-07T00:12:34;19.50;44.30
10654;DHT22;5375;51.250;6.776;2023-04-07T00:15:00;19.50;44.30
10654;DHT22;5375;51.250;6.776;2023-04-07T00:17:26;19.40;44.20
10654;DHT22;5375;51.250;6.776;2023-04-07T00:19:51;19.40;44.30
10654;DHT22;5375;51.250;6.776;2023-04-07T00:22:17;19.50;44.30
10654;DHT22;5375;51.250;6.776;2023-04-07T00:24:42;19.50;44.40
10654;DHT22;5375;51.250;6.776;2023-04-07T00:27:09;19.40;44.30
10654;DHT22;5375;51.250;6.776;2023-04-07T00:29:34;19.50;44.40
10654;DHT22;5375;51.250;6.776;2023-04-07T00:32:00;19.40;44.40
10654;DHT22;5375;51.250;6.776;2023-04-07T00:34:25;19.40;44.40
10654;DHT22;5375;51.250;6.776;2023-04-07T00:36:51;19.40;44.40
10654;DHT22;5375;51.250;6.776;2023-04-07T00:39:17;19.40;44.40
10654;DHT22;5375;51.250;6.776;2023-04-07T00:41:44;19.50;44.40
10654;DHT22;5375;51.250;6.776;2023-04-07T00:46:40;19.40;44.50
10654;DHT22;5375;51.250;6.776;2023-04-07T00:49:09;19.40;44.50
10654;DHT22;5375;51.250;6.776;2023-04-07T00:51:34;19.40;44.50
10654;DHT22;5375;51.250;6.776;2023-04-07T00:54:03;19.40;44.50
10654;DHT22;5375;51.250;6.776;2023-04-07T00:56:32;19.40;44.50
10654;DHT22;5375;51.250;6.776;2023-04-07T00:58:58;19.40;44.50
10654;DHT22;5375;51.250;6.776;2023-04-07T01:01:25;19.40;44.50
10654;DHT22;5375;51.250;6.776;2023-04-07T01:04:06;19.40;44.50
10654;DHT22;5375;51.250;6.776;2023-04-07T01:06:37;19.40;44.50
10654;DHT22;5375;51.250;6.776;2023-04-07T01:09:10;19.40;44.60
10654;DHT22;5375;51.250;6.776;2023-04-07T01:11:48;19.40;44.60
10654;DHT22;5375;51.250;6.776;2023-04-07T01:14:18;19.40;44.60
10654;DHT22;5375;51.250;6.776;2023-04-07T01:16:49;19.40;44.60
10654;DHT22;5375;51.250;6.776;2023-04-07T01:19:31;19.40;44.60
10654;DHT22;5375;51.250;6.776;2023-04-07T01:22:00;19.40;44.60
10654;DHT22;5375;51.250;6.776;2023-04-07T01:30:11;19.30;44.70
10654;DHT22;5375;51.250;6.776;2023-04-07T01:32:40;19.40;44.70
10654;DHT22;5375;51.250;6.776;2023-04-07T01:35:12;19.30;44.70
10654;DHT22;5375;51.250;6.776;2023-04-07T01:37:39;19.30;44.70
10654;DHT22;5375;51.250;6.776;2023-04-07T01:40:06;19.40;44.70
10654;DHT22;5375;51.250;6.776;2023-04-07T01:42:33;19.40;44.70
10654;DHT22;5375;51.250;6.776;2023-04-07T01:45:00;19.40;44.70
10654;DHT22;5375;51.250;6.776;2023-04-07T01:47:27;19.30;44.70
10654;DHT22;5375;51.250;6.776;2023-04-07T01:49:57;19.30;44.70
10654;DHT22;5375;51.250;6.776;2023-04-07T01:52:25;19.30;44.70
10654;DHT22;5375;51.250;6.776;2023-04-07T01:54:50;19.30;44.70
10654;DHT22;5375;51.250;6.776;2023-04-07T01:57:16;19.40;44.80
10654;DHT22;5375;51.250;6.776;2023-04-07T01:59:42;19.30;44.70
10654;DHT22;5375;51.250;6.776;2023-04-07T02:02:08;19.30;44.70
10654;DHT22;5375;51.250;6.776;2023-04-07T02:04:44;19.40;44.80
10654;DHT22;5375;51.250;6.776;2023-04-07T02:07:20;19.30;44.80
10654;DHT22;5375;51.250;6.776;2023-04-07T02:09:47;19.30;44.80
10654;DHT22;5375;51.250;6.776;2023-04-07T02:12:17;19.30;44.80
10654;DHT22;5375;51.250;6.776;2023-04-07T02:14:45;19.30;44.80
10654;DHT22;5375;51.250;6.776;2023-04-07T02:17:12;19.50;45.00
10654;DHT22;5375;51.250;6.776;2023-04-07T02:19:40;19.30;44.80
10654;DHT22;5375;51.250;6.776;2023-04-07T02:22:07;19.30;45.10
10654;DHT22;5375;51.250;6.776;2023-04-07T02:24:34;19.30;44.80
10654;DHT22;5375;51.250;6.776;2023-04-07T02:27:00;19.30;45.40
10654;DHT22;5375;51.250;6.776;2023-04-07T02:29:26;19.30;44.80
10654;DHT22;5375;51.250;6.776;2023-04-07T02:31:55;19.30;44.90
10654;DHT22;5375;51.250;6.776;2023-04-07T02:34:20;19.30;44.80
10654;DHT22;5375;51.250;6.776;2023-04-07T02:36:49;19.30;44.90
10654;DHT22;5375;51.250;6.776;2023-04-07T02:39:15;19.30;44.80
10654;DHT22;5375;51.250;6.776;2023-04-07T02:41:40;19.30;44.80
10654;DHT22;5375;51.250;6.776;2023-04-07T02:44:06;19.30;44.90
10654;DHT22;5375;51.250;6.776;2023-04-07T02:46:32;19.30;44.80
10654;DHT22;5375;51.250;6.776;2023-04-07T02:48:59;19.30;44.90
10654;DHT22;5375;51.250;6.776;2023-04-07T02:51:25;19.30;44.90
10654;DHT22;5375;51.250;6.776;2023-04-07T02:53:51;19.20;44.80
10654;DHT22;5375;51.250;6.776;2023-04-07T02:56:21;19.30;44.90
10654;DHT22;5375;51.250;6.776;2023-04-07T02:58:51;19.30;44.90
10654;DHT22;5375;51.250;6.776;2023-04-07T03:01:17;19.20;44.80
10654;DHT22;5375;51.250;6.776;2023-04-07T03:03:43;19.20;44.80
10654;DHT22;5375;51.250;6.776;2023-04-07T03:06:09;19.20;44.90
10654;DHT22;5375;51.250;6.776;2023-04-07T03:08:35;19.30;45.00
10654;DHT22;5375;51.250;6.776;2023-04-07T03:11:11;19.30;45.00
10654;DHT22;5375;51.250;6.776;2023-04-07T03:13:37;19.30;45.00
10654;DHT22;5375;51.250;6.776;2023-04-07T03:16:03;19.30;45.00
10654;DHT22;5375;51.250;6.776;2023-04-07T03:18:28;19.30;45.00
10654;DHT22;5375;51.250;6.776;2023-04-07T03:20:54;19.30;45.10
10654;DHT22;5375;51.250;6.776;2023-04-07T03:23:20;19.40;45.10
10654;DHT22;5375;51.250;6.776;2023-04-07T03:25:48;19.30;45.10
10654;DHT22;5375;51.250;6.776;2023-04-07T03:28:13;19.30;45.20
10654;DHT22;5375;51.250;6.776;2023-04-07T03:30:42;19.40;45.20
10654;DHT22;5375;51.250;6.776;2023-04-07T03:33:13;19.30;45.10
10654;DHT22;5375;51.250;6.776;2023-04-07T03:35:39;19.30;45.10
10654;DHT22;5375;51.250;6.776;2023-04-07T03:38:05;19.30;45.10
10654;DHT22;5375;51.250;6.776;2023-04-07T03:40:31;19.30;45.10
10654;DHT22;5375;51.250;6.776;2023-04-07T03:42:58;19.30;45.10
10654;DHT22;5375;51.250;6.776;2023-04-07T03:45:23;19.30;45.10
10654;DHT22;5375;51.250;6.776;2023-04-07T03:47:49;19.30;45.20
10654;DHT22;5375;51.250;6.776;2023-04-07T03:50:16;19.30;45.20
10654;DHT22;5375;51.250;6.776;2023-04-07T03:52:42;19.30;45.30
10654;DHT22;5375;51.250;6.776;2023-04-07T03:55:08;19.40;45.30
10654;DHT22;5375;51.250;6.776;2023-04-07T03:57:34;19.40;45.20
10654;DHT22;5375;51.250;6.776;2023-04-07T03:59:59;19.30;45.10
10654;DHT22;5375;51.250;6.776;2023-04-07T04:02:27;19.30;45.10
10654;DHT22;5375;51.250;6.776;2023-04-07T04:04:52;19.40;45.20
10654;DHT22;5375;51.250;6.776;2023-04-07T04:07:18;19.40;45.20
10654;DHT22;5375;51.250;6.776;2023-04-07T04:09:43;19.40;45.20
10654;DHT22;5375;51.250;6.776;2023-04-07T04:12:10;19.40;45.30
10654;DHT22;5375;51.250;6.776;2023-04-07T04:14:35;19.40;45.20
10654;DHT22;5375;51.250;6.776;2023-04-07T04:17:01;19.40;45.20
10654;DHT22;5375;51.250;6.776;2023-04-07T04:19:26;19.40;45.20
10654;DHT22;5375;51.250;6.776;2023-04-07T04:21:53;19.40;45.10
10654;DHT22;5375;51.250;6.776;2023-04-07T04:24:19;19.40;45.10
10654;DHT22;5375;51.250;6.776;2023-04-07T04:26:47;19.40;45.20
10654;DHT22;5375;51.250;6.776;2023-04-07T04:29:13;19.40;45.50
10654;DHT22;5375;51.250;6.776;2023-04-07T04:31:38;19.50;45.30
10654;DHT22;5375;51.250;6.776;2023-04-07T04:34:05;19.50;45.30
10654;DHT22;5375;51.250;6.776;2023-04-07T04:36:31;19.50;45.30
10654;DHT22;5375;51.250;6.776;2023-04-07T04:38:57;19.50;45.20
10654;DHT22;5375;51.250;6.776;2023-04-07T04:41:22;19.50;45.20
10654;DHT22;5375;51.250;6.776;2023-04-07T04:43:49;19.50;45.20
10654;DHT22;5375;51.250;6.776;2023-04-07T04:46:17;19.50;45.20
10654;DHT22;5375;51.250;6.776;2023-04-07T04:48:43;19.50;45.30
10654;DHT22;5375;51.250;6.776;2023-04-07T04:51:08;19.50;45.30
10654;DHT22;5375;51.250;6.776;2023-04-07T04:53:34;19.50;45.30
10654;DHT22;5375;51.250;6.776;2023-04-07T04:55:59;19.50;45.30
10654;DHT22;5375;51.250;6.776;2023-04-07T04:58:28;19.50;45.30
10654;DHT22;5375;51.250;6.776;2023-04-07T05:00:54;19.50;45.20
10654;DHT22;5375;51.250;6.776;2023-04-07T05:03:25;19.50;45.30
10654;DHT22;5375;51.250;6.776;2023-04-07T05:05:54;19.50;45.30
10654;DHT22;5375;51.250;6.776;2023-04-07T05:08:21;19.50;45.30
10654;DHT22;5375;51.250;6.776;2023-04-07T05:10:47;19.50;45.30
10654;DHT22;5375;51.250;6.776;2023-04-07T05:13:13;19.50;45.30
10654;DHT22;5375;51.250;6.776;2023-04-07T05:15:40;19.50;45.30
10654;DHT22;5375;51.250;6.776;2023-04-07T05:18:05;19.50;45.30
10654;DHT22;5375;51.250;6.776;2023-04-07T05:20:31;19.50;45.30
10654;DHT22;5375;51.250;6.776;2023-04-07T05:22:58;19.50;45.30
10654;DHT22;5375;51.250;6.776;2023-04-07T05:25:26;19.50;45.30
10654;DHT22;5375;51.250;6.776;2023-04-07T05:27:58;19.50;45.30
10654;DHT22;5375;51.250;6.776;2023-04-07T05:30:26;19.50;45.30
10654;DHT22;5375;51.250;6.776;2023-04-07T05:32:53;19.50;45.30
10654;DHT22;5375;51.250;6.776;2023-04-07T05:35:18;19.50;45.30
10654;DHT22;5375;51.250;6.776;2023-04-07T05:37:49;19.50;45.30
10654;DHT22;5375;51.250;6.776;2023-04-07T05:40:21;19.50;45.30
10654;DHT22;5375;51.250;6.776;2023-04-07T05:42:47;19.50;45.30
10654;DHT22;5375;51.250;6.776;2023-04-07T05:45:12;19.50;45.30
10654;DHT22;5375;51.250;6.776;2023-04-07T05:47:38;19.50;45.30
10654;DHT22;5375;51.250;6.776;2023-04-07T05:50:05;19.50;45.40
10654;DHT22;5375;51.250;6.776;2023-04-07T05:52:31;19.50;45.30
10654;DHT22;5375;51.250;6.776;2023-04-07T05:54:58;19.50;45.40
10654;DHT22;5375;51.250;6.776;2023-04-07T05:57:24;19.50;45.40
10654;DHT22;5375;51.250;6.776;2023-04-07T05:59:51;19.50;45.30
10654;DHT22;5375;51.250;6.776;2023-04-07T06:02:17;19.50;45.30
10654;DHT22;5375;51.250;6.776;2023-04-07T06:04:43;19.50;45.40
10654;DHT22;5375;51.250;6.776;2023-04-07T06:07:08;19.50;45.40
10654;DHT22;5375;51.250;6.776;2023-04-07T06:09:34;19.50;45.40
10654;DHT22;5375;51.250;6.776;2023-04-07T06:12:00;19.50;45.40
10654;DHT22;5375;51.250;6.776;2023-04-07T06:14:26;19.50;46.00
10654;DHT22;5375;51.250;6.776;2023-04-07T06:16:52;19.50;45.40
10654;DHT22;5375;51.250;6.776;2023-04-07T06:19:17;19.50;45.40
10654;DHT22;5375;51.250;6.776;2023-04-07T06:22:02;19.50;45.40
10654;DHT22;5375;51.250;6.776;2023-04-07T06:24:27;19.50;45.40
10654;DHT22;5375;51.250;6.776;2023-04-07T06:26:53;19.50;45.40
10654;DHT22;5375;51.250;6.776;2023-04-07T06:29:20;19.50;45.40
10654;DHT22;5375;51.250;6.776;2023-04-07T06:31:46;19.50;45.40
10654;DHT22;5375;51.250;6.776;2023-04-07T06:34:11;19.50;45.40
10654;DHT22;5375;51.250;6.776;2023-04-07T06:36:37;19.50;45.40
10654;DHT22;5375;51.250;6.776;2023-04-07T06:39:03;19.50;45.40
10654;DHT22;5375;51.250;6.776;2023-04-07T06:41:28;19.50;45.40
10654;DHT22;5375;51.250;6.776;2023-04-07T06:43:54;19.50;45.40
10654;DHT22;5375;51.250;6.776;2023-04-07T06:46:19;19.50;45.40
10654;DHT22;5375;51.250;6.776;2023-04-07T06:48:45;19.50;45.40
10654;DHT22;5375;51.250;6.776;2023-04-07T06:51:11;19.50;45.40
10654;DHT22;5375;51.250;6.776;2023-04-07T06:53:39;19.50;45.40
10654;DHT22;5375;51.250;6.776;2023-04-07T06:56:10;19.50;45.40
10654;DHT22;5375;51.250;6.776;2023-04-07T06:58:43;19.50;45.40
10654;DHT22;5375;51.250;6.776;2023-04-07T07:01:08;19.50;45.40
10654;DHT22;5375;51.250;6.776;2023-04-07T07:03:34;19.50;45.40
10654;DHT22;5375;51.250;6.776;2023-04-07T07:06:00;19.50;45.40
10654;DHT22;5375;51.250;6.776;2023-04-07T07:08:27;19.50;45.50
10654;DHT22;5375;51.250;6.776;2023-04-07T07:10:54;19.40;45.40
10654;DHT22;5375;51.250;6.776;2023-04-07T07:13:23;19.50;45.50
10654;DHT22;5375;51.250;6.776;2023-04-07T07:15:55;19.50;45.50
10654;DHT22;5375;51.250;6.776;2023-04-07T07:18:28;19.50;45.50
10654;DHT22;5375;51.250;6.776;2023-04-07T07:20:54;19.50;45.50
10654;DHT22;5375;51.250;6.776;2023-04-07T07:25:55;19.50;45.60
10654;DHT22;5375;51.250;6.776;2023-04-07T07:28:21;19.50;45.60
10654;DHT22;5375;51.250;6.776;2023-04-07T07:30:48;19.50;45.60
10654;DHT22;5375;51.250;6.776;2023-04-07T07:33:15;19.50;45.60
10654;DHT22;5375;51.250;6.776;2023-04-07T07:35:40;19.50;45.60
10654;DHT22;5375;51.250;6.776;2023-04-07T07:38:06;19.50;45.60
10654;DHT22;5375;51.250;6.776;2023-04-07T07:40:32;19.50;45.60
10654;DHT22;5375;51.250;6.776;2023-04-07T07:42:59;19.50;45.70
10654;DHT22;5375;51.250;6.776;2023-04-07T07:45:25;19.50;45.60
10654;DHT22;5375;51.250;6.776;2023-04-07T07:47:51;18.10;45.00
10654;DHT22;5375;51.250;6.776;2023-04-07T07:50:16;19.50;45.60
10654;DHT22;5375;51.250;6.776;2023-04-07T07:52:42;19.40;45.60
10654;DHT22;5375;51.250;6.776;2023-04-07T07:55:08;19.50;45.60
10654;DHT22;5375;51.250;6.776;2023-04-07T07:57:34;19.50;45.60
10654;DHT22;5375;51.250;6.776;2023-04-07T08:00:00;19.50;45.60
10654;DHT22;5375;51.250;6.776;2023-04-07T08:02:26;19.40;45.50
10654;DHT22;5375;51.250;6.776;2023-04-07T08:04:59;19.40;45.50
10654;DHT22;5375;51.250;6.776;2023-04-07T08:07:25;19.50;45.60
10654;DHT22;5375;51.250;6.776;2023-04-07T08:09:51;19.50;45.70
10654;DHT22;5375;51.250;6.776;2023-04-07T08:12:17;19.50;45.70
10654;DHT22;5375;51.250;6.776;2023-04-07T08:14:43;19.50;45.70
10654;DHT22;5375;51.250;6.776;2023-04-07T08:17:09;19.50;45.80
10654;DHT22;5375;51.250;6.776;2023-04-07T08:19:34;19.50;45.90
10654;DHT22;5375;51.250;6.776;2023-04-07T08:22:00;19.50;45.90
10654;DHT22;5375;51.250;6.776;2023-04-07T08:27:01;19.50;46.00
10654;DHT22;5375;51.250;6.776;2023-04-07T08:29:27;19.60;46.00
10654;DHT22;5375;51.250;6.776;2023-04-07T08:34:22;19.60;46.10
10654;DHT22;5375;51.250;6.776;2023-04-07T08:36:48;19.60;46.00
10654;DHT22;5375;51.250;6.776;2023-04-07T08:39:14;19.60;46.00
10654;DHT22;5375;51.250;6.776;2023-04-07T08:41:40;19.60;46.00
10654;DHT22;5375;51.250;6.776;2023-04-07T08:44:07;19.60;46.00
10654;DHT22;5375;51.250;6.776;2023-04-07T08:46:34;19.60;46.10
10654;DHT22;5375;51.250;6.776;2023-04-07T08:49:03;19.60;46.00
10654;DHT22;5375;51.250;6.776;2023-04-07T08:51:33;19.60;46.00
10654;DHT22;5375;51.250;6.776;2023-04-07T08:54:08;19.60;46.00
10654;DHT22;5375;51.250;6.776;2023-04-07T08:56:36;19.60;46.10
10654;DHT22;5375;51.250;6.776;2023-04-07T08:59:05;19.60;46.10
10654;DHT22;5375;51.250;6.776;2023-04-07T09:01:31;19.60;46.10
10654;DHT22;5375;51.250;6.776;2023-04-07T09:04:02;19.60;46.10
10654;DHT22;5375;51.250;6.776;2023-04-07T09:06:48;19.60;46.10
10654;DHT22;5375;51.250;6.776;2023-04-07T09:09:14;19.60;46.70
10654;DHT22;5375;51.250;6.776;2023-04-07T09:11:43;19.60;46.10
10654;DHT22;5375;51.250;6.776;2023-04-07T09:14:11;19.60;46.10
10654;DHT22;5375;51.250;6.776;2023-04-07T09:16:38;19.60;46.10
10654;DHT22;5375;51.250;6.776;2023-04-07T09:19:04;19.60;46.10
10654;DHT22;5375;51.250;6.776;2023-04-07T09:21:51;19.60;46.20
10654;DHT22;5375;51.250;6.776;2023-04-07T09:24:27;19.60;46.10
10654;DHT22;5375;51.250;6.776;2023-04-07T09:27:15;19.60;46.20
10654;DHT22;5375;51.250;6.776;2023-04-07T09:30:12;19.60;46.10
10654;DHT22;5375;51.250;6.776;2023-04-07T09:32:41;19.70;46.20
10654;DHT22;5375;51.250;6.776;2023-04-07T09:35:07;19.60;46.20
10654;DHT22;5375;51.250;6.776;2023-04-07T09:37:33;19.70;46.30
10654;DHT22;5375;51.250;6.776;2023-04-07T09:39:58;19.60;46.20
10654;DHT22;5375;51.250;6.776;2023-04-07T09:42:26;19.70;46.30
10654;DHT22;5375;51.250;6.776;2023-04-07T09:44:57;19.00;45.90
10654;DHT22;5375;51.250;6.776;2023-04-07T09:47:35;19.70;46.20
10654;DHT22;5375;51.250;6.776;2023-04-07T09:50:03;19.70;46.20
10654;DHT22;5375;51.250;6.776;2023-04-07T09:52:50;19.70;46.20
10654;DHT22;5375;51.250;6.776;2023-04-07T09:55:21;19.70;46.20
10654;DHT22;5375;51.250;6.776;2023-04-07T09:57:51;19.70;46.30
10654;DHT22;5375;51.250;6.776;2023-04-07T10:00:17;19.70;46.20
10654;DHT22;5375;51.250;6.776;2023-04-07T10:02:43;19.70;46.20
10654;DHT22;5375;51.250;6.776;2023-04-07T10:05:09;19.70;46.20
10654;DHT22;5375;51.250;6.776;2023-04-07T10:07:35;19.70;46.30
10654;DHT22;5375;51.250;6.776;2023-04-07T10:10:02;19.70;46.30
10654;DHT22;5375;51.250;6.776;2023-04-07T10:12:30;19.70;46.30
10654;DHT22;5375;51.250;6.776;2023-04-07T10:14:59;19.70;46.30
10654;DHT22;5375;51.250;6.776;2023-04-07T10:17:27;19.70;46.40
10654;DHT22;5375;51.250;6.776;2023-04-07T10:19:57;19.70;46.40
10654;DHT22;5375;51.250;6.776;2023-04-07T10:22:26;19.70;46.40
10654;DHT22;5375;51.250;6.776;2023-04-07T10:24:59;19.70;46.40
10654;DHT22;5375;51.250;6.776;2023-04-07T10:27:41;19.70;46.40
10654;DHT22;5375;51.250;6.776;2023-04-07T10:30:26;19.70;46.40
10654;DHT22;5375;51.250;6.776;2023-04-07T10:32:53;19.70;46.40
10654;DHT22;5375;51.250;6.776;2023-04-07T10:35:20;19.70;46.40
10654;DHT22;5375;51.250;6.776;2023-04-07T10:40:31;19.70;46.40
10654;DHT22;5375;51.250;6.776;2023-04-07T10:42:57;19.70;46.40
10654;DHT22;5375;51.250;6.776;2023-04-07T10:45:52;19.70;46.40
10654;DHT22;5375;51.250;6.776;2023-04-07T10:48:19;19.70;46.40
10654;DHT22;5375;51.250;6.776;2023-04-07T10:50:46;19.70;46.40
10654;DHT22;5375;51.250;6.776;2023-04-07T10:53:32;19.60;46.30
10654;DHT22;5375;51.250;6.776;2023-04-07T10:56:01;19.60;46.30
10654;DHT22;5375;51.250;6.776;2023-04-07T10:58:33;19.60;46.30
10654;DHT22;5375;51.250;6.776;2023-04-07T11:03:40;19.60;46.30
10654;DHT22;5375;51.250;6.776;2023-04-07T11:06:10;19.60;46.30
10654;DHT22;5375;51.250;6.776;2023-04-07T11:11:07;19.60;46.30
10654;DHT22;5375;51.250;6.776;2023-04-07T11:16:06;19.60;46.30
10654;DHT22;5375;51.250;6.776;2023-04-07T11:18:32;19.60;46.30
10654;DHT22;5375;51.250;6.776;2023-04-07T11:20:57;19.60;46.30
10654;DHT22;5375;51.250;6.776;2023-04-07T11:23:24;19.60;46.30
10654;DHT22;5375;51.250;6.776;2023-04-07T11:25:52;19.60;46.30
10654;DHT22;5375;51.250;6.776;2023-04-07T11:28:18;19.60;46.30
10654;DHT22;5375;51.250;6.776;2023-04-07T11:30:51;19.60;46.30
10654;DHT22;5375;51.250;6.776;2023-04-07T11:33:24;19.60;46.30
10654;DHT22;5375;51.250;6.776;2023-04-07T11:35:52;19.60;46.30
10654;DHT22;5375;51.250;6.776;2023-04-07T11:38:20;19.60;46.30
10654;DHT22;5375;51.250;6.776;2023-04-07T11:40:46;19.60;46.30
10654;DHT22;5375;51.250;6.776;2023-04-07T11:43:18;19.60;46.30
10654;DHT22;5375;51.250;6.776;2023-04-07T11:45:44;19.60;46.30
10654;DHT22;5375;51.250;6.776;2023-04-07T11:48:26;19.60;46.30
10654;DHT22;5375;51.250;6.776;2023-04-07T11:50:52;19.60;46.30
10654;DHT22;5375;51.250;6.776;2023-04-07T11:55:59;19.60;46.30
10654;DHT22;5375;51.250;6.776;2023-04-07T11:58:28;19.60;46.30
10654;DHT22;5375;51.250;6.776;2023-04-07T12:00:58;19.60;46.30
10654;DHT22;5375;51.250;6.776;2023-04-07T12:03:24;19.60;46.30
10654;DHT22;5375;51.250;6.776;2023-04-07T12:05:49;19.60;46.30
10654;DHT22;5375;51.250;6.776;2023-04-07T12:08:15;19.60;46.30
10654;DHT22;5375;51.250;6.776;2023-04-07T12:10:41;19.60;46.30
10654;DHT22;5375;51.250;6.776;2023-04-07T12:13:07;19.50;46.20
10654;DHT22;5375;51.250;6.776;2023-04-07T12:15:34;19.60;46.30
10654;DHT22;5375;51.250;6.776;2023-04-07T12:18:03;19.50;46.20
10654;DHT22;5375;51.250;6.776;2023-04-07T12:20:28;19.50;46.20
10654;DHT22;5375;51.250;6.776;2023-04-07T12:22:54;19.50;46.20
10654;DHT22;5375;51.250;6.776;2023-04-07T12:25:20;19.50;46.20
10654;DHT22;5375;51.250;6.776;2023-04-07T12:27:46;19.50;46.20
10654;DHT22;5375;51.250;6.776;2023-04-07T12:30:12;19.50;46.30
10654;DHT22;5375;51.250;6.776;2023-04-07T12:32:38;19.50;46.90
10654;DHT22;5375;51.250;6.776;2023-04-07T12:35:05;19.50;46.20
10654;DHT22;5375;51.250;6.776;2023-04-07T12:37:30;19.50;46.20
10654;DHT22;5375;51.250;6.776;2023-04-07T12:39:57;19.50;46.20
10654;DHT22;5375;51.250;6.776;2023-04-07T12:42:24;19.50;46.20
10654;DHT22;5375;51.250;6.776;2023-04-07T12:44:49;19.50;46.20
10654;DHT22;5375;51.250;6.776;2023-04-07T12:47:19;19.50;46.20
10654;DHT22;5375;51.250;6.776;2023-04-07T12:50:02;19.50;46.30
10654;DHT22;5375;51.250;6.776;2023-04-07T12:52:39;19.50;46.20
10654;DHT22;5375;51.250;6.776;2023-04-07T12:55:05;19.60;46.30
10654;DHT22;5375;51.250;6.776;2023-04-07T12:57:31;19.60;46.30
10654;DHT22;5375;51.250;6.776;2023-04-07T12:59:57;19.60;46.30
10654;DHT22;5375;51.250;6.776;2023-04-07T13:02:26;19.60;46.30
10654;DHT22;5375;51.250;6.776;2023-04-07T13:04:52;19.60;46.30
10654;DHT22;5375;51.250;6.776;2023-04-07T13:07:17;19.60;46.30
10654;DHT22;5375;51.250;6.776;2023-04-07T13:09:43;19.50;46.30
10654;DHT22;5375;51.250;6.776;2023-04-07T13:12:12;19.50;46.30
10654;DHT22;5375;51.250;6.776;2023-04-07T13:14:39;19.50;46.30
10654;DHT22;5375;51.250;6.776;2023-04-07T13:17:06;19.50;46.30
10654;DHT22;5375;51.250;6.776;2023-04-07T13:19:34;19.50;46.30
10654;DHT22;5375;51.250;6.776;2023-04-07T13:21:59;19.50;46.30
10654;DHT22;5375;51.250;6.776;2023-04-07T13:24:25;19.50;46.30
10654;DHT22;5375;51.250;6.776;2023-04-07T13:26:51;19.50;46.40
10654;DHT22;5375;51.250;6.776;2023-04-07T13:29:17;19.50;46.30
10654;DHT22;5375;51.250;6.776;2023-04-07T13:31:46;19.50;46.30
10654;DHT22;5375;51.250;6.776;2023-04-07T13:34:12;19.50;46.40
10654;DHT22;5375;51.250;6.776;2023-04-07T13:36:38;19.50;46.40
10654;DHT22;5375;51.250;6.776;2023-04-07T13:39:04;19.50;46.30
10654;DHT22;5375;51.250;6.776;2023-04-07T13:41:30;19.50;46.30
10654;DHT22;5375;51.250;6.776;2023-04-07T13:43:56;19.50;46.30
10654;DHT22;5375;51.250;6.776;2023-04-07T13:46:23;19.50;46.30
10654;DHT22;5375;51.250;6.776;2023-04-07T13:48:50;19.50;46.40
10654;DHT22;5375;51.250;6.776;2023-04-07T13:51:16;19.50;46.30
10654;DHT22;5375;51.250;6.776;2023-04-07T13:53:42;19.50;46.30
10654;DHT22;5375;51.250;6.776;2023-04-07T13:56:09;19.50;46.30
10654;DHT22;5375;51.250;6.776;2023-04-07T13:58:41;19.50;46.30
10654;DHT22;5375;51.250;6.776;2023-04-07T14:01:08;19.50;46.40
10654;DHT22;5375;51.250;6.776;2023-04-07T14:03:34;19.50;46.40
10654;DHT22;5375;51.250;6.776;2023-04-07T14:05:59;19.50;46.40
10654;DHT22;5375;51.250;6.776;2023-04-07T14:08:26;19.50;46.40
10654;DHT22;5375;51.250;6.776;2023-04-07T14:10:52;19.50;46.40
10654;DHT22;5375;51.250;6.776;2023-04-07T14:13:18;19.50;46.40
10654;DHT22;5375;51.250;6.776;2023-04-07T14:15:44;19.50;46.40
10654;DHT22;5375;51.250;6.776;2023-04-07T14:18:10;19.60;46.40
10654;DHT22;5375;51.250;6.776;2023-04-07T14:20:36;19.60;46.40
10654;DHT22;5375;51.250;6.776;2023-04-07T14:23:01;19.60;46.40
10654;DHT22;5375;51.250;6.776;2023-04-07T14:25:27;19.60;46.40
10654;DHT22;5375;51.250;6.776;2023-04-07T14:27:52;19.60;46.50
10654;DHT22;5375;51.250;6.776;2023-04-07T14:30:18;19.60;46.50
10654;DHT22;5375;51.250;6.776;2023-04-07T14:32:44;19.60;46.50
10654;DHT22;5375;51.250;6.776;2023-04-07T14:35:09;19.60;46.50
10654;DHT22;5375;51.250;6.776;2023-04-07T14:37:35;19.60;46.50
10654;DHT22;5375;51.250;6.776;2023-04-07T14:40:04;19.60;46.50
10654;DHT22;5375;51.250;6.776;2023-04-07T14:42:30;19.60;46.60
10654;DHT22;5375;51.250;6.776;2023-04-07T14:44:59;19.60;46.60
10654;DHT22;5375;51.250;6.776;2023-04-07T14:47:25;19.70;46.60
10654;DHT22;5375;51.250;6.776;2023-04-07T14:49:51;19.70;46.60
10654;DHT22;5375;51.250;6.776;2023-04-07T14:52:17;19.70;46.60
10654;DHT22;5375;51.250;6.776;2023-04-07T14:54:42;19.70;46.70
10654;DHT22;5375;51.250;6.776;2023-04-07T14:57:08;19.70;46.70
10654;DHT22;5375;51.250;6.776;2023-04-07T14:59:34;19.70;46.70
10654;DHT22;5375;51.250;6.776;2023-04-07T15:01:59;19.70;46.70
10654;DHT22;5375;51.250;6.776;2023-04-07T15:04:25;19.70;46.70
10654;DHT22;5375;51.250;6.776;2023-04-07T15:06:51;19.70;46.60
10654;DHT22;5375;51.250;6.776;2023-04-07T15:09:16;19.70;46.70
10654;DHT22;5375;51.250;6.776;2023-04-07T15:11:43;19.70;46.70
10654;DHT22;5375;51.250;6.776;2023-04-07T15:14:11;19.70;46.70
10654;DHT22;5375;51.250;6.776;2023-04-07T15:16:37;19.70;46.70
10654;DHT22;5375;51.250;6.776;2023-04-07T15:19:02;19.70;46.70
10654;DHT22;5375;51.250;6.776;2023-04-07T15:21:28;19.70;46.70
10654;DHT22;5375;51.250;6.776;2023-04-07T15:23:54;19.70;46.70
10654;DHT22;5375;51.250;6.776;2023-04-07T15:26:19;19.70;46.70
10654;DHT22;5375;51.250;6.776;2023-04-07T15:28:45;19.70;46.70
10654;DHT22;5375;51.250;6.776;2023-04-07T15:31:13;19.70;46.70
10654;DHT22;5375;51.250;6.776;2023-04-07T15:33:39;19.70;46.80
10654;DHT22;5375;51.250;6.776;2023-04-07T15:36:06;19.70;46.80
10654;DHT22;5375;51.250;6.776;2023-04-07T15:38:32;19.70;46.90
10654;DHT22;5375;51.250;6.776;2023-04-07T15:40:58;19.70;46.90
10654;DHT22;5375;51.250;6.776;2023-04-07T15:43:24;19.70;47.00
10654;DHT22;5375;51.250;6.776;2023-04-07T15:45:50;19.70;46.90
10654;DHT22;5375;51.250;6.776;2023-04-07T15:48:19;19.70;47.00
10654;DHT22;5375;51.250;6.776;2023-04-07T15:50:45;19.70;47.00
10654;DHT22;5375;51.250;6.776;2023-04-07T15:53:11;19.70;47.30
10654;DHT22;5375;51.250;6.776;2023-04-07T15:55:37;19.70;47.10
10654;DHT22;5375;51.250;6.776;2023-04-07T15:58:03;19.70;47.10
10654;DHT22;5375;51.250;6.776;2023-04-07T16:00:32;19.60;47.10
10654;DHT22;5375;51.250;6.776;2023-04-07T16:02:59;19.60;47.10
10654;DHT22;5375;51.250;6.776;2023-04-07T16:05:25;19.60;47.10
10654;DHT22;5375;51.250;6.776;2023-04-07T16:07:50;19.60;47.10
10654;DHT22;5375;51.250;6.776;2023-04-07T16:10:16;19.60;47.20
10654;DHT22;5375;51.250;6.776;2023-04-07T16:12:44;19.60;47.20
10654;DHT22;5375;51.250;6.776;2023-04-07T16:15:13;19.60;47.20